Airfield :
LOGIN :

Register | Disclaimer

   EN    FR    IT 

 










Legend :    VFR   Marginal VFR   IFR   Intensive IFR   Very Intensive IFR
Visi :
Ceiling :
>= 8 km
>= 3000ft
5 to 8 km
1000 to 3000 ft
1500m to 5 km
500 to 1000 ft
800 to 1500m
200 to 500 ft
< 800m
< 200 ft
Symbols :   Thunderstorms  Fog  Heavy snow  Heavy precipitations  Wind > 20 kt
SIGMETs :     Misc.  Thunderstorms  Icing  Turbulence  Mountain Waves  Volcanic Ashes






- Airport Elevation : 1989 ft
- IATA code : KLV


LKKV - Karlovy Vary

CURRENT METAR :
  • 181200Z 14005KT 080V200 CAVOK 20/08 Q1026

EXPIRED METARs :
  • 181130Z 11006KT 330V140 9999 SCT046 20/09 Q1026
  • 181100Z 11009KT 9999 SCT043 19/09 Q1026
  • 181030Z 13008KT 080V180 9999 SCT041 18/08 Q1027
  • 181000Z 13006KT 090V190 9999 FEW040 18/09 Q1026
  • 180930Z 15005KT 080V190 9999 SCT036 18/09 Q1027

TAF TAF LKKV
Valid from the 18 at 12:00 until the 19 at 18:00 UTC


181100Z 1812/1918 15003KT CAVOK



MET'MAP, your aeronautical weather chart ! - Copyright ORBIFLY December 2007 - Disclaimer

ORBIFLY MET'MAP TEAM :

Programming & Development : Alexandra Zaïnal
Original concept : Baudouin d'Aumeries
Technical & hardware support : Manuel Goepfert
Assistance : Marc-Olivier Méhu

Contact : metmap@orbifly.com




SOURCES & CREDITS :

   NOAA